createdAt,value
2022-12-26T00:01:00.828Z,10.77
2022-12-26T00:03:30.549Z,10.76
2022-12-26T00:05:58.568Z,10.69
2022-12-26T00:08:27.971Z,10.69
2022-12-26T00:10:55.684Z,10.68
2022-12-26T00:13:38.656Z,10.70
2022-12-26T00:16:10.248Z,10.79
2022-12-26T00:18:38.583Z,10.81
2022-12-26T00:21:06.712Z,10.85
2022-12-26T00:23:36.979Z,10.87
2022-12-26T00:26:05.359Z,10.90
2022-12-26T00:28:33.591Z,10.88
2022-12-26T00:31:06.139Z,10.91
2022-12-26T00:33:35.401Z,10.91
2022-12-26T00:36:04.096Z,10.92
2022-12-26T00:38:31.823Z,10.90
2022-12-26T00:41:00.792Z,10.92
2022-12-26T00:43:28.513Z,10.94
2022-12-26T00:45:56.099Z,10.96
2022-12-26T00:48:24.745Z,11.05
2022-12-26T00:50:53.105Z,11.13
2022-12-26T00:53:21.532Z,11.12
2022-12-26T00:55:49.616Z,11.12
2022-12-26T00:58:19.026Z,11.13
2022-12-26T01:00:46.750Z,11.15
2022-12-26T01:03:15.774Z,11.20
2022-12-26T01:05:44.792Z,11.21
2022-12-26T01:08:22.469Z,11.17
2022-12-26T01:10:51.876Z,11.14
2022-12-26T01:13:28.219Z,11.13
2022-12-26T01:15:57.050Z,11.02
2022-12-26T01:18:25.706Z,10.99
2022-12-26T01:20:53.293Z,10.93
2022-12-26T01:23:20.853Z,10.94
2022-12-26T01:26:17.559Z,10.88
2022-12-26T01:28:37.292Z,10.85
2022-12-26T01:31:06.093Z,10.87
2022-12-26T01:33:33.850Z,10.74
2022-12-26T01:36:01.576Z,10.68
2022-12-26T01:38:29.209Z,10.71
2022-12-26T01:41:11.047Z,10.65
2022-12-26T01:43:51.911Z,10.70
2022-12-26T01:46:22.165Z,10.73
2022-12-26T01:48:50.954Z,10.59
2022-12-26T01:51:21.689Z,10.58
2022-12-26T01:53:53.640Z,10.49
2022-12-26T01:56:24.760Z,10.55
2022-12-26T01:58:59.175Z,10.54
2022-12-26T02:01:30.411Z,10.52
2022-12-26T02:04:17.858Z,10.56
2022-12-26T02:06:45.566Z,10.49
2022-12-26T02:09:13.777Z,10.57
2022-12-26T02:11:46.113Z,10.51
2022-12-26T02:14:15.977Z,10.52
2022-12-26T02:16:43.913Z,10.58
2022-12-26T02:19:24.671Z,10.59
2022-12-26T02:22:25.314Z,10.57
2022-12-26T02:25:17.014Z,10.42
2022-12-26T02:28:02.553Z,10.42
2022-12-26T02:30:40.320Z,10.40
2022-12-26T02:33:19.913Z,10.48
2022-12-26T02:36:03.108Z,10.53
2022-12-26T02:38:41.130Z,10.54
2022-12-26T02:41:24.704Z,10.55
2022-12-26T02:44:26.027Z,10.56
2022-12-26T02:47:05.047Z,10.53
2022-12-26T02:49:59.472Z,10.50
2022-12-26T02:52:49.199Z,10.53
2022-12-26T02:55:40.049Z,10.48
2022-12-26T02:58:35.773Z,10.48
2022-12-26T03:01:25.828Z,10.54
2022-12-26T03:04:14.863Z,10.52
2022-12-26T03:07:11.588Z,10.51
2022-12-26T03:10:01.512Z,10.49
2022-12-26T03:12:54.911Z,10.54
2022-12-26T03:15:25.820Z,10.53
2022-12-26T03:17:58.084Z,10.54
2022-12-26T03:20:28.854Z,10.53
2022-12-26T03:22:59.408Z,10.56
2022-12-26T03:25:55.369Z,10.58
2022-12-26T03:28:24.159Z,10.60
2022-12-26T03:30:51.860Z,10.62
2022-12-26T03:33:41.950Z,10.62
2022-12-26T03:36:16.772Z,10.62
2022-12-26T03:38:55.262Z,10.65
2022-12-26T03:41:46.409Z,10.69
2022-12-26T03:44:53.294Z,10.72
2022-12-26T03:47:45.978Z,10.70
2022-12-26T03:50:41.172Z,10.65
2022-12-26T03:53:36.132Z,10.63
2022-12-26T03:56:26.965Z,10.64
2022-12-26T03:59:20.360Z,10.69
2022-12-26T04:02:08.997Z,10.64
2022-12-26T04:04:58.556Z,10.64
2022-12-26T04:07:58.547Z,10.67
2022-12-26T04:10:49.835Z,10.67
2022-12-26T04:13:41.159Z,10.67
2022-12-26T04:16:34.697Z,10.65
2022-12-26T04:19:30.801Z,10.66
2022-12-26T04:22:24.041Z,10.65
2022-12-26T04:25:16.659Z,10.67
2022-12-26T04:28:03.089Z,10.66
2022-12-26T04:30:52.694Z,10.70
2022-12-26T04:33:44.015Z,10.67
2022-12-26T04:36:35.162Z,10.67
2022-12-26T04:39:25.423Z,10.65
2022-12-26T04:42:11.799Z,10.68
2022-12-26T04:44:41.862Z,10.70
2022-12-26T04:47:09.662Z,10.69
2022-12-26T04:50:00.926Z,10.69
2022-12-26T04:52:50.145Z,10.65
2022-12-26T04:55:18.047Z,10.65
2022-12-26T04:57:45.693Z,10.63
2022-12-26T05:00:16.743Z,10.58
2022-12-26T05:03:01.824Z,10.62
2022-12-26T05:05:47.399Z,10.49
2022-12-26T05:08:45.279Z,10.44
2022-12-26T05:11:13.067Z,10.50
2022-12-26T05:13:40.673Z,10.51
2022-12-26T05:16:28.054Z,10.52
2022-12-26T05:19:13.178Z,10.44
2022-12-26T05:21:58.929Z,10.44
2022-12-26T05:24:47.224Z,10.45
2022-12-26T05:27:39.684Z,10.45
2022-12-26T05:30:08.925Z,10.38
2022-12-26T05:32:55.498Z,10.40
2022-12-26T05:35:23.320Z,10.41
2022-12-26T05:37:50.948Z,10.33
2022-12-26T05:40:18.627Z,10.26
2022-12-26T05:42:46.415Z,10.29
2022-12-26T05:45:14.109Z,10.33
2022-12-26T05:47:48.252Z,10.31
2022-12-26T05:50:19.079Z,10.40
2022-12-26T05:52:46.954Z,10.39
2022-12-26T05:55:14.558Z,10.37
2022-12-26T05:57:42.084Z,10.31
2022-12-26T06:00:10.990Z,10.25
2022-12-26T06:02:38.649Z,10.29
2022-12-26T06:05:08.138Z,10.32
2022-12-26T06:07:36.685Z,10.41
2022-12-26T06:10:06.337Z,10.41
2022-12-26T06:12:34.297Z,10.41
2022-12-26T06:15:02.318Z,10.39
2022-12-26T06:17:30.399Z,10.45
2022-12-26T06:19:58.001Z,10.46
2022-12-26T06:22:26.891Z,10.44
2022-12-26T06:24:54.741Z,10.40
2022-12-26T06:27:22.312Z,10.41
2022-12-26T06:29:49.861Z,10.39
2022-12-26T06:32:17.519Z,10.32
2022-12-26T06:34:45.110Z,10.38
2022-12-26T06:37:12.707Z,10.31
2022-12-26T06:39:41.562Z,10.26
2022-12-26T06:42:09.613Z,10.24
2022-12-26T06:44:37.369Z,10.19
2022-12-26T06:47:05.075Z,10.20
2022-12-26T06:49:33.448Z,10.25
2022-12-26T06:52:03.274Z,10.28
2022-12-26T06:54:30.880Z,10.27
2022-12-26T06:56:59.871Z,10.16
2022-12-26T06:59:27.532Z,10.09
2022-12-26T07:01:55.238Z,10.04
2022-12-26T07:04:22.957Z,10.09
2022-12-26T07:06:50.527Z,10.13
2022-12-26T07:09:20.053Z,10.17
2022-12-26T07:11:49.586Z,10.24
2022-12-26T07:14:18.529Z,10.20
2022-12-26T07:16:46.207Z,10.22
2022-12-26T07:19:15.377Z,10.11
2022-12-26T07:21:43.641Z,10.10
2022-12-26T07:24:16.502Z,10.15
2022-12-26T07:26:44.392Z,10.16
2022-12-26T07:29:12.811Z,10.15
2022-12-26T07:31:42.843Z,10.15
2022-12-26T07:34:10.726Z,10.15
2022-12-26T07:36:38.544Z,10.16
2022-12-26T07:39:06.113Z,10.20
2022-12-26T07:41:52.842Z,10.19
2022-12-26T07:44:20.409Z,10.16
2022-12-26T07:46:49.299Z,10.17
2022-12-26T07:49:17.107Z,10.16
2022-12-26T07:51:44.915Z,10.18
2022-12-26T07:54:12.882Z,10.14
2022-12-26T07:56:40.874Z,10.10
2022-12-26T07:59:09.019Z,10.08
2022-12-26T08:01:36.694Z,10.05
2022-12-26T08:04:05.776Z,9.97
2022-12-26T08:06:33.402Z,10.02
2022-12-26T08:09:00.960Z,10.06
2022-12-26T08:11:29.990Z,10.02
2022-12-26T08:13:58.316Z,10.04
2022-12-26T08:16:25.945Z,9.98
2022-12-26T08:18:53.484Z,10.05
2022-12-26T08:21:22.403Z,10.04
2022-12-26T08:23:49.930Z,10.02
2022-12-26T08:26:23.033Z,10.08
2022-12-26T08:28:52.232Z,10.09
2022-12-26T08:31:20.838Z,10.12
2022-12-26T08:33:48.941Z,10.11
2022-12-26T08:36:19.009Z,10.17
2022-12-26T08:38:48.002Z,10.19
2022-12-26T08:41:17.260Z,10.15
2022-12-26T08:44:25.272Z,10.11
2022-12-26T08:46:32.503Z,10.17
2022-12-26T08:49:00.201Z,10.17
2022-12-26T08:51:28.341Z,10.23
2022-12-26T08:53:57.233Z,10.17
2022-12-26T08:56:26.953Z,10.11
2022-12-26T08:58:54.638Z,10.11
2022-12-26T09:01:25.179Z,10.16
2022-12-26T09:03:54.569Z,10.18
2022-12-26T09:06:22.577Z,10.32
2022-12-26T09:08:50.558Z,10.43
2022-12-26T09:11:22.388Z,10.53
2022-12-26T09:13:50.058Z,10.55
2022-12-26T09:16:20.281Z,10.57
2022-12-26T09:18:48.728Z,10.45
2022-12-26T09:21:16.941Z,10.34
2022-12-26T09:23:44.927Z,10.22
2022-12-26T09:26:15.442Z,10.24
2022-12-26T09:28:45.908Z,10.18
2022-12-26T09:31:15.389Z,10.22
2022-12-26T09:33:43.851Z,10.24
2022-12-26T09:36:15.048Z,10.24
2022-12-26T09:38:43.669Z,10.29
2022-12-26T09:41:25.503Z,10.28
2022-12-26T09:44:04.221Z,10.32
2022-12-26T09:46:37.084Z,10.33
2022-12-26T09:49:11.558Z,10.37
2022-12-26T09:51:42.211Z,10.37
2022-12-26T09:54:18.122Z,10.40
2022-12-26T09:57:07.310Z,10.37
2022-12-26T09:59:45.370Z,10.42
2022-12-26T10:02:19.736Z,10.45
2022-12-26T10:04:47.810Z,10.41
2022-12-26T10:07:23.167Z,10.47
2022-12-26T10:10:02.089Z,10.49
2022-12-26T10:12:39.221Z,10.45
2022-12-26T10:15:30.875Z,10.44
2022-12-26T10:18:08.927Z,10.36
2022-12-26T10:20:47.749Z,10.35
2022-12-26T10:23:31.245Z,10.29
2022-12-26T10:26:07.283Z,10.30
2022-12-26T10:28:40.219Z,10.36
2022-12-26T10:31:18.922Z,10.38
2022-12-26T10:33:51.933Z,10.42
2022-12-26T10:36:30.366Z,10.48
2022-12-26T10:39:00.541Z,10.46
2022-12-26T10:41:36.351Z,10.43
2022-12-26T10:44:04.006Z,10.39
2022-12-26T10:47:07.260Z,10.45
2022-12-26T10:49:35.059Z,10.50
2022-12-26T10:52:10.516Z,10.53
2022-12-26T10:54:40.325Z,10.46
2022-12-26T10:57:08.947Z,10.50
2022-12-26T10:59:42.286Z,10.52
2022-12-26T11:02:22.656Z,10.53
2022-12-26T11:07:58.635Z,10.56
2022-12-26T11:10:31.558Z,10.52
2022-12-26T11:13:04.057Z,10.52
2022-12-26T11:15:35.027Z,10.49
2022-12-26T11:18:19.108Z,10.46
2022-12-26T11:20:51.041Z,10.50
2022-12-26T11:23:25.221Z,10.50
2022-12-26T11:25:54.930Z,10.54
2022-12-26T11:28:29.905Z,10.59
2022-12-26T11:30:58.338Z,10.69
2022-12-26T11:33:31.329Z,10.68
2022-12-26T11:36:07.049Z,10.70
2022-12-26T11:38:48.696Z,10.67
2022-12-26T11:41:36.481Z,10.69
2022-12-26T11:44:13.994Z,10.75
2022-12-26T11:46:45.335Z,10.70
2022-12-26T11:49:22.561Z,10.74
2022-12-26T11:51:57.156Z,10.80
2022-12-26T11:54:30.961Z,10.79
2022-12-26T11:57:18.887Z,10.81
2022-12-26T11:59:47.450Z,10.81
2022-12-26T12:02:37.633Z,10.78
2022-12-26T12:05:14.363Z,10.72
2022-12-26T12:08:11.116Z,10.72
2022-12-26T12:10:55.609Z,10.75
2022-12-26T12:13:51.083Z,10.69
2022-12-26T12:16:34.167Z,10.72
2022-12-26T12:19:14.809Z,10.69
2022-12-26T12:21:45.508Z,10.69
2022-12-26T12:24:33.144Z,10.67
2022-12-26T12:27:08.305Z,10.65
2022-12-26T12:29:52.245Z,10.63
2022-12-26T12:32:28.659Z,10.63
2022-12-26T12:35:23.225Z,10.69
2022-12-26T12:38:07.447Z,10.67
2022-12-26T12:40:44.526Z,10.72
2022-12-26T12:43:20.582Z,10.71
2022-12-26T12:45:57.374Z,10.73
2022-12-26T12:48:47.263Z,10.78
2022-12-26T12:51:28.069Z,10.79
2022-12-26T12:54:22.202Z,10.74
2022-12-26T12:56:55.364Z,10.74
2022-12-26T12:59:33.077Z,10.69
2022-12-26T13:02:10.272Z,10.67
2022-12-26T13:04:43.012Z,10.71
2022-12-26T13:07:16.379Z,10.70
2022-12-26T13:09:48.942Z,10.78
2022-12-26T13:12:20.844Z,10.79
2022-12-26T13:14:52.954Z,10.80
2022-12-26T13:17:26.010Z,10.86
2022-12-26T13:20:02.675Z,10.84
2022-12-26T13:22:55.154Z,10.81
2022-12-26T13:25:29.607Z,10.90
2022-12-26T13:28:09.949Z,10.95
2022-12-26T13:30:38.828Z,10.88
2022-12-26T13:33:07.265Z,10.84
2022-12-26T13:35:56.411Z,10.86
2022-12-26T13:38:25.656Z,10.86
2022-12-26T13:41:20.522Z,10.82
2022-12-26T13:44:00.890Z,10.80
2022-12-26T13:46:55.769Z,10.78
2022-12-26T13:49:36.056Z,10.70
2022-12-26T13:52:26.686Z,10.74
2022-12-26T13:55:29.945Z,10.64
2022-12-26T13:58:23.491Z,10.57
2022-12-26T14:00:51.778Z,10.09
2022-12-26T14:03:49.245Z,10.03
2022-12-26T14:06:38.022Z,9.94
2022-12-26T14:09:26.123Z,9.84
2022-12-26T14:12:08.308Z,9.97
2022-12-26T14:14:54.837Z,10.04
2022-12-26T14:17:36.078Z,10.00
2022-12-26T14:20:15.712Z,10.00
2022-12-26T14:22:52.393Z,9.92
2022-12-26T14:25:26.538Z,9.91
2022-12-26T14:28:01.386Z,9.91
2022-12-26T14:30:37.366Z,9.82
2022-12-26T14:33:21.442Z,9.82
2022-12-26T14:36:05.882Z,9.73
2022-12-26T14:38:44.997Z,9.76
2022-12-26T14:41:35.584Z,9.48
2022-12-26T14:44:11.261Z,9.43
2022-12-26T14:47:00.453Z,9.41
2022-12-26T14:49:39.990Z,9.36
2022-12-26T14:52:37.500Z,9.46
2022-12-26T14:55:48.033Z,9.45
2022-12-26T14:58:31.130Z,9.28
2022-12-26T15:01:37.537Z,9.37
2022-12-26T15:04:16.722Z,9.22
2022-12-26T15:07:14.068Z,9.10
2022-12-26T15:10:16.422Z,9.04
2022-12-26T15:13:24.362Z,9.21
2022-12-26T15:16:07.985Z,9.17
2022-12-26T15:19:07.117Z,9.06
2022-12-26T15:22:06.554Z,9.05
2022-12-26T15:25:22.840Z,9.05
2022-12-26T15:28:27.084Z,9.09
2022-12-26T15:31:11.958Z,9.00
2022-12-26T15:33:41.663Z,8.80
2022-12-26T15:36:21.648Z,8.48
2022-12-26T15:38:58.750Z,8.57
2022-12-26T15:41:36.887Z,8.45
2022-12-26T15:44:17.543Z,8.58
2022-12-26T15:46:53.386Z,8.63
2022-12-26T15:49:37.779Z,8.47
2022-12-26T15:52:19.972Z,8.50
2022-12-26T15:55:04.627Z,8.58
2022-12-26T15:57:41.677Z,8.54
2022-12-26T16:00:15.354Z,8.57
2022-12-26T16:02:48.668Z,8.56
2022-12-26T16:05:43.415Z,8.63
2022-12-26T16:08:42.632Z,8.34
2022-12-26T16:11:18.636Z,8.19
2022-12-26T16:13:52.746Z,8.25
2022-12-26T16:16:29.641Z,8.21
2022-12-26T16:18:58.244Z,8.18
2022-12-26T16:21:47.655Z,8.25
2022-12-26T16:24:23.125Z,8.38
2022-12-26T16:26:52.348Z,8.50
2022-12-26T16:29:22.053Z,8.54
2022-12-26T16:31:49.897Z,8.53
2022-12-26T16:34:21.560Z,8.43
2022-12-26T16:36:51.545Z,8.45
2022-12-26T16:39:23.181Z,8.31
2022-12-26T16:42:04.532Z,8.31
2022-12-26T16:44:37.762Z,8.10
2022-12-26T16:47:08.406Z,8.16
2022-12-26T16:49:38.001Z,8.14
2022-12-26T16:52:07.764Z,7.96
2022-12-26T16:54:42.359Z,7.95
2022-12-26T16:57:16.544Z,8.04
2022-12-26T16:59:51.796Z,8.01
2022-12-26T17:02:23.801Z,8.01
2022-12-26T17:04:58.568Z,7.92
2022-12-26T17:07:28.188Z,8.11
2022-12-26T17:10:00.321Z,7.94
2022-12-26T17:12:34.855Z,7.98
2022-12-26T17:15:04.411Z,7.79
2022-12-26T17:17:37.781Z,7.91
2022-12-26T17:20:37.746Z,7.83
2022-12-26T17:23:36.774Z,7.89
2022-12-26T17:26:23.170Z,7.98
2022-12-26T17:28:55.133Z,7.74
2022-12-26T17:31:35.397Z,7.65
2022-12-26T17:34:09.340Z,7.73
2022-12-26T17:39:28.868Z,7.82
2022-12-26T17:42:01.018Z,7.74
2022-12-26T17:44:39.516Z,7.62
2022-12-26T17:47:15.727Z,7.66
2022-12-26T17:49:43.851Z,7.71
2022-12-26T17:52:13.398Z,7.70
2022-12-26T17:54:43.103Z,7.53
2022-12-26T17:57:18.130Z,7.50
2022-12-26T17:59:50.095Z,7.53
2022-12-26T18:02:18.332Z,7.57
2022-12-26T18:04:46.792Z,7.59
2022-12-26T18:07:18.567Z,7.58
2022-12-26T18:09:47.034Z,7.60
2022-12-26T18:12:16.977Z,7.59
2022-12-26T18:14:45.699Z,7.60
2022-12-26T18:17:18.243Z,7.63
2022-12-26T18:19:46.135Z,7.66
2022-12-26T18:22:16.251Z,7.68
2022-12-26T18:24:44.753Z,7.73
2022-12-26T18:27:19.080Z,7.64
2022-12-26T18:29:47.578Z,7.59
2022-12-26T18:32:24.601Z,7.54
2022-12-26T18:34:52.361Z,7.55
2022-12-26T18:37:21.010Z,7.59
2022-12-26T18:39:48.841Z,7.59
2022-12-26T18:42:18.119Z,7.57
2022-12-26T18:44:46.229Z,7.58
2022-12-26T18:47:17.345Z,7.50
2022-12-26T18:49:47.251Z,7.46
2022-12-26T18:52:17.736Z,7.36
2022-12-26T18:54:46.653Z,7.29
2022-12-26T18:57:19.257Z,7.32
2022-12-26T18:59:47.980Z,7.37
2022-12-26T19:02:17.764Z,7.37
2022-12-26T19:04:48.439Z,7.28
2022-12-26T19:07:17.881Z,7.30
2022-12-26T19:09:46.642Z,7.24
2022-12-26T19:12:14.967Z,7.21
2022-12-26T19:14:44.979Z,7.19
2022-12-26T19:17:13.585Z,7.17
2022-12-26T19:19:41.880Z,7.07
2022-12-26T19:22:11.358Z,7.08
2022-12-26T19:24:39.442Z,7.13
2022-12-26T19:27:07.212Z,7.12
2022-12-26T19:29:34.965Z,6.99
2022-12-26T19:32:03.387Z,6.97
2022-12-26T19:34:31.342Z,6.96
2022-12-26T19:36:59.700Z,6.96
2022-12-26T19:39:29.541Z,6.95
2022-12-26T19:41:57.135Z,7.08
2022-12-26T19:44:24.874Z,7.07
2022-12-26T19:47:11.999Z,6.89
2022-12-26T19:49:40.126Z,6.93
2022-12-26T19:52:07.887Z,6.81
2022-12-26T19:54:36.799Z,6.82
2022-12-26T19:57:04.928Z,6.76
2022-12-26T19:59:32.714Z,6.61
2022-12-26T20:02:00.522Z,6.74
2022-12-26T20:04:28.310Z,6.68
2022-12-26T20:06:59.503Z,6.69
2022-12-26T20:09:27.573Z,6.67
2022-12-26T20:11:56.909Z,6.53
2022-12-26T20:14:26.923Z,6.43
2022-12-26T20:17:06.069Z,6.55
2022-12-26T20:19:34.383Z,6.58
2022-12-26T20:22:02.436Z,6.50
2022-12-26T20:24:30.104Z,6.34
2022-12-26T20:27:00.648Z,6.24
2022-12-26T20:29:28.444Z,6.27
2022-12-26T20:31:56.132Z,6.18
2022-12-26T20:34:23.909Z,6.24
2022-12-26T20:36:51.674Z,6.32
2022-12-26T20:39:20.350Z,6.32
2022-12-26T20:41:48.341Z,6.29
2022-12-26T20:44:17.442Z,6.24
2022-12-26T20:46:45.987Z,6.22
2022-12-26T20:49:14.673Z,6.04
2022-12-26T20:51:44.683Z,6.15
2022-12-26T20:54:15.367Z,6.24
2022-12-26T20:56:43.624Z,6.36
2022-12-26T20:59:11.936Z,6.36
2022-12-26T21:01:41.291Z,6.34
2022-12-26T21:04:09.822Z,6.44
2022-12-26T21:06:38.602Z,6.27
2022-12-26T21:09:07.330Z,5.99
2022-12-26T21:11:38.317Z,5.88
2022-12-26T21:14:07.924Z,5.80
2022-12-26T21:16:38.254Z,6.00
2022-12-26T21:19:14.671Z,5.95
2022-12-26T21:21:44.570Z,5.99
2022-12-26T21:24:15.119Z,6.04
2022-12-26T21:26:43.919Z,5.84
2022-12-26T21:29:14.551Z,5.83
2022-12-26T21:31:42.985Z,5.89
2022-12-26T21:34:15.115Z,5.98
2022-12-26T21:37:02.809Z,5.79
2022-12-26T21:39:30.654Z,5.82
2022-12-26T21:41:58.590Z,5.88
2022-12-26T21:44:26.302Z,5.99
2022-12-26T21:46:54.213Z,6.00
2022-12-26T21:49:23.255Z,5.90
2022-12-26T21:51:50.978Z,5.94
2022-12-26T21:54:36.523Z,5.88
2022-12-26T21:57:04.306Z,6.03
2022-12-26T21:59:49.589Z,6.01
2022-12-26T22:02:31.357Z,5.90
2022-12-26T22:05:01.137Z,5.92
2022-12-26T22:07:29.450Z,5.81
2022-12-26T22:09:57.083Z,5.85
2022-12-26T22:12:42.435Z,5.89
2022-12-26T22:15:31.039Z,5.86
2022-12-26T22:17:58.672Z,5.97
2022-12-26T22:20:27.625Z,6.03
2022-12-26T22:22:55.462Z,6.04
2022-12-26T22:25:23.053Z,6.09
2022-12-26T22:27:50.690Z,6.09
2022-12-26T22:30:18.445Z,6.09
2022-12-26T22:32:46.093Z,6.04
2022-12-26T22:35:18.615Z,6.10
2022-12-26T22:37:47.960Z,6.06
2022-12-26T22:40:15.605Z,5.92
2022-12-26T22:42:45.543Z,5.94
2022-12-26T22:45:13.142Z,5.99
2022-12-26T22:47:40.684Z,5.82
2022-12-26T22:50:09.018Z,5.81
2022-12-26T22:52:36.638Z,5.95
2022-12-26T22:55:06.413Z,5.85
2022-12-26T22:57:33.972Z,5.83
2022-12-26T23:00:10.301Z,5.88
2022-12-26T23:02:38.739Z,5.88
2022-12-26T23:05:10.797Z,5.83
2022-12-26T23:07:38.984Z,5.87
2022-12-26T23:10:09.839Z,5.91
2022-12-26T23:12:47.017Z,5.92
2022-12-26T23:15:18.082Z,5.82
2022-12-26T23:18:07.832Z,5.90
2022-12-26T23:20:56.458Z,5.91
2022-12-26T23:23:24.652Z,5.79
2022-12-26T23:25:53.638Z,5.79
2022-12-26T23:28:38.843Z,5.72
2022-12-26T23:31:06.604Z,5.75
2022-12-26T23:33:34.143Z,5.68
2022-12-26T23:36:02.018Z,5.55
2022-12-26T23:38:29.781Z,5.61
2022-12-26T23:40:58.713Z,5.70
2022-12-26T23:43:26.318Z,5.64
2022-12-26T23:45:53.918Z,5.59
2022-12-26T23:48:21.627Z,5.50
2022-12-26T23:50:49.440Z,5.56
2022-12-26T23:53:17.106Z,5.66
2022-12-26T23:55:44.716Z,5.71
2022-12-26T23:58:13.627Z,5.72
